sensor_id;sensor_type;location;lat;lon;timestamp;P1;durP1;ratioP1;P2;durP2;ratioP2
17921;SDS011;9086;50.966;3.144;2023-03-31T00:01:57;10.17;;;2.47;;
17921;SDS011;9086;50.966;3.144;2023-03-31T00:04:23;11.80;;;2.43;;
17921;SDS011;9086;50.966;3.144;2023-03-31T00:06:50;10.60;;;2.57;;
17921;SDS011;9086;50.966;3.144;2023-03-31T00:09:18;9.87;;;1.97;;
17921;SDS011;9086;50.966;3.144;2023-03-31T00:11:46;8.90;;;2.50;;
17921;SDS011;9086;50.966;3.144;2023-03-31T00:14:13;10.10;;;2.57;;
17921;SDS011;9086;50.966;3.144;2023-03-31T00:16:39;9.10;;;3.20;;
17921;SDS011;9086;50.966;3.144;2023-03-31T00:19:05;9.47;;;2.60;;
17921;SDS011;9086;50.966;3.144;2023-03-31T00:21:34;10.30;;;2.87;;
17921;SDS011;9086;50.966;3.144;2023-03-31T00:24:02;6.97;;;2.70;;
17921;SDS011;9086;50.966;3.144;2023-03-31T00:26:28;9.83;;;2.00;;
17921;SDS011;9086;50.966;3.144;2023-03-31T00:28:55;9.33;;;2.80;;
17921;SDS011;9086;50.966;3.144;2023-03-31T00:31:21;14.70;;;2.93;;
17921;SDS011;9086;50.966;3.144;2023-03-31T00:33:48;12.23;;;2.90;;
17921;SDS011;9086;50.966;3.144;2023-03-31T00:36:14;13.60;;;3.50;;
17921;SDS011;9086;50.966;3.144;2023-03-31T00:38:45;11.60;;;2.80;;
17921;SDS011;9086;50.966;3.144;2023-03-31T00:41:12;12.20;;;2.90;;
17921;SDS011;9086;50.966;3.144;2023-03-31T00:43:38;8.37;;;3.17;;
17921;SDS011;9086;50.966;3.144;2023-03-31T00:46:18;10.63;;;2.67;;
17921;SDS011;9086;50.966;3.144;2023-03-31T00:48:52;12.40;;;2.73;;
17921;SDS011;9086;50.966;3.144;2023-03-31T00:51:21;12.67;;;3.83;;
17921;SDS011;9086;50.966;3.144;2023-03-31T00:53:50;8.57;;;2.83;;
17921;SDS011;9086;50.966;3.144;2023-03-31T00:56:21;10.80;;;3.30;;
17921;SDS011;9086;50.966;3.144;2023-03-31T00:58:48;7.77;;;3.03;;
17921;SDS011;9086;50.966;3.144;2023-03-31T01:01:16;21.30;;;3.70;;
17921;SDS011;9086;50.966;3.144;2023-03-31T01:03:43;9.27;;;3.50;;
17921;SDS011;9086;50.966;3.144;2023-03-31T01:06:10;13.10;;;3.40;;
17921;SDS011;9086;50.966;3.144;2023-03-31T01:08:37;14.33;;;3.87;;
17921;SDS011;9086;50.966;3.144;2023-03-31T01:11:05;11.87;;;3.23;;
17921;SDS011;9086;50.966;3.144;2023-03-31T01:13:33;15.57;;;3.90;;
17921;SDS011;9086;50.966;3.144;2023-03-31T01:16:00;10.13;;;3.13;;
17921;SDS011;9086;50.966;3.144;2023-03-31T01:18:27;10.70;;;3.87;;
17921;SDS011;9086;50.966;3.144;2023-03-31T01:21:18;12.23;;;3.53;;
17921;SDS011;9086;50.966;3.144;2023-03-31T01:26:28;7.17;;;2.90;;
17921;SDS011;9086;50.966;3.144;2023-03-31T01:29:26;8.93;;;3.77;;
17921;SDS011;9086;50.966;3.144;2023-03-31T01:35:00;11.27;;;3.53;;
17921;SDS011;9086;50.966;3.144;2023-03-31T01:42:41;14.33;;;4.07;;
17921;SDS011;9086;50.966;3.144;2023-03-31T01:45:18;8.13;;;4.17;;
17921;SDS011;9086;50.966;3.144;2023-03-31T01:47:56;8.70;;;3.80;;
17921;SDS011;9086;50.966;3.144;2023-03-31T01:50:28;13.47;;;4.70;;
17921;SDS011;9086;50.966;3.144;2023-03-31T01:55:41;8.80;;;4.17;;
17921;SDS011;9086;50.966;3.144;2023-03-31T01:58:12;13.43;;;4.93;;
17921;SDS011;9086;50.966;3.144;2023-03-31T02:01:28;14.00;;;4.53;;
17921;SDS011;9086;50.966;3.144;2023-03-31T02:03:30;12.10;;;4.60;;
17921;SDS011;9086;50.966;3.144;2023-03-31T02:05:59;7.67;;;4.10;;
17921;SDS011;9086;50.966;3.144;2023-03-31T02:08:31;9.37;;;4.40;;
17921;SDS011;9086;50.966;3.144;2023-03-31T02:10:58;11.40;;;3.67;;
17921;SDS011;9086;50.966;3.144;2023-03-31T02:13:25;11.63;;;4.03;;
17921;SDS011;9086;50.966;3.144;2023-03-31T02:15:57;7.70;;;4.53;;
17921;SDS011;9086;50.966;3.144;2023-03-31T02:18:26;8.87;;;4.40;;
17921;SDS011;9086;50.966;3.144;2023-03-31T02:20:54;9.53;;;4.20;;
17921;SDS011;9086;50.966;3.144;2023-03-31T02:23:23;6.27;;;3.77;;
17921;SDS011;9086;50.966;3.144;2023-03-31T02:25:54;7.70;;;4.10;;
17921;SDS011;9086;50.966;3.144;2023-03-31T02:28:22;11.33;;;4.00;;
17921;SDS011;9086;50.966;3.144;2023-03-31T02:33:30;7.63;;;4.07;;
17921;SDS011;9086;50.966;3.144;2023-03-31T02:35:57;9.33;;;4.23;;
17921;SDS011;9086;50.966;3.144;2023-03-31T02:38:25;7.60;;;4.27;;
17921;SDS011;9086;50.966;3.144;2023-03-31T02:40:52;11.13;;;4.00;;
17921;SDS011;9086;50.966;3.144;2023-03-31T02:43:18;7.37;;;2.90;;
17921;SDS011;9086;50.966;3.144;2023-03-31T02:45:45;5.23;;;1.93;;
17921;SDS011;9086;50.966;3.144;2023-03-31T02:48:32;5.87;;;2.33;;
17921;SDS011;9086;50.966;3.144;2023-03-31T02:51:08;5.93;;;2.37;;
17921;SDS011;9086;50.966;3.144;2023-03-31T03:01:10;6.50;;;2.00;;
17921;SDS011;9086;50.966;3.144;2023-03-31T03:03:49;4.80;;;1.80;;
17921;SDS011;9086;50.966;3.144;2023-03-31T03:11:32;6.47;;;1.70;;
17921;SDS011;9086;50.966;3.144;2023-03-31T03:14:16;3.87;;;1.40;;
17921;SDS011;9086;50.966;3.144;2023-03-31T03:16:44;2.73;;;0.93;;
17921;SDS011;9086;50.966;3.144;2023-03-31T03:19:16;2.07;;;0.90;;
17921;SDS011;9086;50.966;3.144;2023-03-31T03:21:43;3.37;;;1.13;;
17921;SDS011;9086;50.966;3.144;2023-03-31T03:24:09;1.77;;;0.90;;
17921;SDS011;9086;50.966;3.144;2023-03-31T03:26:35;2.70;;;0.90;;
17921;SDS011;9086;50.966;3.144;2023-03-31T03:29:01;2.20;;;0.70;;
17921;SDS011;9086;50.966;3.144;2023-03-31T03:31:28;3.60;;;1.03;;
17921;SDS011;9086;50.966;3.144;2023-03-31T03:33:54;2.27;;;0.60;;
17921;SDS011;9086;50.966;3.144;2023-03-31T03:36:20;1.67;;;0.80;;
17921;SDS011;9086;50.966;3.144;2023-03-31T03:38:47;1.00;;;0.70;;
17921;SDS011;9086;50.966;3.144;2023-03-31T03:41:13;1.03;;;0.70;;
17921;SDS011;9086;50.966;3.144;2023-03-31T03:43:39;1.03;;;0.60;;
17921;SDS011;9086;50.966;3.144;2023-03-31T03:46:05;2.23;;;0.70;;
17921;SDS011;9086;50.966;3.144;2023-03-31T03:48:32;1.17;;;0.60;;
17921;SDS011;9086;50.966;3.144;2023-03-31T03:51:01;0.83;;;0.63;;
17921;SDS011;9086;50.966;3.144;2023-03-31T03:53:27;2.27;;;0.70;;
17921;SDS011;9086;50.966;3.144;2023-03-31T03:55:53;2.67;;;1.03;;
17921;SDS011;9086;50.966;3.144;2023-03-31T03:58:19;2.60;;;1.00;;
17921;SDS011;9086;50.966;3.144;2023-03-31T04:00:45;4.37;;;1.27;;
17921;SDS011;9086;50.966;3.144;2023-03-31T04:03:12;3.57;;;1.10;;
17921;SDS011;9086;50.966;3.144;2023-03-31T04:05:38;1.03;;;0.93;;
17921;SDS011;9086;50.966;3.144;2023-03-31T04:08:04;3.90;;;1.50;;
17921;SDS011;9086;50.966;3.144;2023-03-31T04:10:32;4.07;;;2.07;;
17921;SDS011;9086;50.966;3.144;2023-03-31T04:12:58;2.67;;;1.83;;
17921;SDS011;9086;50.966;3.144;2023-03-31T04:15:24;2.70;;;2.00;;
17921;SDS011;9086;50.966;3.144;2023-03-31T04:17:50;2.57;;;2.23;;
17921;SDS011;9086;50.966;3.144;2023-03-31T04:20:18;4.00;;;2.87;;
17921;SDS011;9086;50.966;3.144;2023-03-31T04:22:45;3.03;;;2.87;;
17921;SDS011;9086;50.966;3.144;2023-03-31T04:25:14;4.33;;;3.37;;
17921;SDS011;9086;50.966;3.144;2023-03-31T04:27:45;4.30;;;4.00;;
17921;SDS011;9086;50.966;3.144;2023-03-31T04:30:14;4.57;;;4.17;;
17921;SDS011;9086;50.966;3.144;2023-03-31T04:32:49;6.07;;;5.23;;
17921;SDS011;9086;50.966;3.144;2023-03-31T04:35:17;7.20;;;6.17;;
17921;SDS011;9086;50.966;3.144;2023-03-31T04:37:44;6.40;;;6.00;;
17921;SDS011;9086;50.966;3.144;2023-03-31T04:40:10;6.07;;;5.67;;
17921;SDS011;9086;50.966;3.144;2023-03-31T04:42:36;7.03;;;6.53;;
17921;SDS011;9086;50.966;3.144;2023-03-31T04:45:02;7.93;;;7.43;;
17921;SDS011;9086;50.966;3.144;2023-03-31T04:47:28;9.30;;;8.70;;
17921;SDS011;9086;50.966;3.144;2023-03-31T04:49:54;10.77;;;10.07;;
17921;SDS011;9086;50.966;3.144;2023-03-31T04:52:24;11.97;;;11.07;;
17921;SDS011;9086;50.966;3.144;2023-03-31T04:54:50;11.43;;;10.53;;
17921;SDS011;9086;50.966;3.144;2023-03-31T04:57:16;13.70;;;12.80;;
17921;SDS011;9086;50.966;3.144;2023-03-31T04:59:42;13.57;;;12.40;;
17921;SDS011;9086;50.966;3.144;2023-03-31T05:02:08;15.73;;;14.67;;
17921;SDS011;9086;50.966;3.144;2023-03-31T05:04:34;15.03;;;14.07;;
17921;SDS011;9086;50.966;3.144;2023-03-31T05:07:01;16.00;;;15.00;;
17921;SDS011;9086;50.966;3.144;2023-03-31T05:09:27;17.87;;;16.40;;
17921;SDS011;9086;50.966;3.144;2023-03-31T05:11:53;19.73;;;18.23;;
17921;SDS011;9086;50.966;3.144;2023-03-31T05:14:19;18.97;;;17.63;;
17921;SDS011;9086;50.966;3.144;2023-03-31T05:16:45;16.80;;;15.70;;
17921;SDS011;9086;50.966;3.144;2023-03-31T05:19:12;17.90;;;16.50;;
17921;SDS011;9086;50.966;3.144;2023-03-31T05:21:38;17.43;;;16.20;;
17921;SDS011;9086;50.966;3.144;2023-03-31T05:24:04;23.20;;;21.00;;
17921;SDS011;9086;50.966;3.144;2023-03-31T05:26:30;20.37;;;18.57;;
17921;SDS011;9086;50.966;3.144;2023-03-31T05:28:56;15.87;;;14.77;;
17921;SDS011;9086;50.966;3.144;2023-03-31T05:31:22;22.77;;;20.90;;
17921;SDS011;9086;50.966;3.144;2023-03-31T05:33:48;21.80;;;19.87;;
17921;SDS011;9086;50.966;3.144;2023-03-31T05:36:15;18.80;;;17.00;;
17921;SDS011;9086;50.966;3.144;2023-03-31T05:38:41;20.97;;;19.43;;
17921;SDS011;9086;50.966;3.144;2023-03-31T05:41:08;19.27;;;17.57;;
17921;SDS011;9086;50.966;3.144;2023-03-31T05:43:35;16.70;;;15.10;;
17921;SDS011;9086;50.966;3.144;2023-03-31T05:46:01;14.20;;;12.30;;
17921;SDS011;9086;50.966;3.144;2023-03-31T05:48:28;16.07;;;13.97;;
17921;SDS011;9086;50.966;3.144;2023-03-31T05:50:57;18.60;;;16.20;;
17921;SDS011;9086;50.966;3.144;2023-03-31T05:53:24;20.60;;;13.53;;
17921;SDS011;9086;50.966;3.144;2023-03-31T05:55:55;15.43;;;12.13;;
17921;SDS011;9086;50.966;3.144;2023-03-31T05:58:21;14.30;;;12.90;;
17921;SDS011;9086;50.966;3.144;2023-03-31T06:00:47;16.03;;;12.30;;
17921;SDS011;9086;50.966;3.144;2023-03-31T06:03:13;15.57;;;11.97;;
17921;SDS011;9086;50.966;3.144;2023-03-31T06:05:39;12.43;;;9.87;;
17921;SDS011;9086;50.966;3.144;2023-03-31T06:08:05;15.03;;;10.77;;
17921;SDS011;9086;50.966;3.144;2023-03-31T06:10:31;16.63;;;12.40;;
17921;SDS011;9086;50.966;3.144;2023-03-31T06:12:57;13.67;;;11.17;;
17921;SDS011;9086;50.966;3.144;2023-03-31T06:15:23;17.67;;;9.97;;
17921;SDS011;9086;50.966;3.144;2023-03-31T06:17:49;15.20;;;9.40;;
17921;SDS011;9086;50.966;3.144;2023-03-31T06:20:15;12.37;;;7.67;;
17921;SDS011;9086;50.966;3.144;2023-03-31T06:22:41;12.07;;;9.03;;
17921;SDS011;9086;50.966;3.144;2023-03-31T06:25:07;13.87;;;7.63;;
17921;SDS011;9086;50.966;3.144;2023-03-31T06:27:34;16.67;;;9.23;;
17921;SDS011;9086;50.966;3.144;2023-03-31T06:30:00;15.93;;;7.53;;
17921;SDS011;9086;50.966;3.144;2023-03-31T06:32:26;10.83;;;7.10;;
17921;SDS011;9086;50.966;3.144;2023-03-31T06:34:52;15.73;;;7.57;;
17921;SDS011;9086;50.966;3.144;2023-03-31T06:37:17;12.97;;;5.87;;
17921;SDS011;9086;50.966;3.144;2023-03-31T06:39:43;13.83;;;6.37;;
17921;SDS011;9086;50.966;3.144;2023-03-31T06:42:09;15.50;;;7.73;;
17921;SDS011;9086;50.966;3.144;2023-03-31T06:44:35;12.83;;;5.73;;
17921;SDS011;9086;50.966;3.144;2023-03-31T06:47:01;19.00;;;6.40;;
17921;SDS011;9086;50.966;3.144;2023-03-31T06:49:27;16.33;;;5.37;;
17921;SDS011;9086;50.966;3.144;2023-03-31T06:51:53;16.77;;;5.83;;
17921;SDS011;9086;50.966;3.144;2023-03-31T06:54:19;13.07;;;5.60;;
17921;SDS011;9086;50.966;3.144;2023-03-31T06:56:45;17.20;;;5.60;;
17921;SDS011;9086;50.966;3.144;2023-03-31T06:59:11;10.03;;;4.97;;
17921;SDS011;9086;50.966;3.144;2023-03-31T07:01:37;18.73;;;5.83;;
17921;SDS011;9086;50.966;3.144;2023-03-31T07:04:06;16.73;;;5.53;;
17921;SDS011;9086;50.966;3.144;2023-03-31T07:06:33;11.97;;;4.27;;
17921;SDS011;9086;50.966;3.144;2023-03-31T07:08:59;18.50;;;5.40;;
17921;SDS011;9086;50.966;3.144;2023-03-31T07:11:24;17.57;;;5.20;;
17921;SDS011;9086;50.966;3.144;2023-03-31T07:13:50;17.07;;;4.50;;
17921;SDS011;9086;50.966;3.144;2023-03-31T07:16:16;14.03;;;3.80;;
17921;SDS011;9086;50.966;3.144;2023-03-31T07:18:42;15.47;;;4.50;;
17921;SDS011;9086;50.966;3.144;2023-03-31T07:21:09;15.50;;;4.60;;
17921;SDS011;9086;50.966;3.144;2023-03-31T07:23:36;16.23;;;5.03;;
17921;SDS011;9086;50.966;3.144;2023-03-31T07:26:02;14.27;;;5.10;;
17921;SDS011;9086;50.966;3.144;2023-03-31T07:28:28;12.80;;;4.50;;
17921;SDS011;9086;50.966;3.144;2023-03-31T07:30:55;14.80;;;5.47;;
17921;SDS011;9086;50.966;3.144;2023-03-31T07:33:21;17.00;;;5.27;;
17921;SDS011;9086;50.966;3.144;2023-03-31T07:35:47;15.43;;;6.03;;
17921;SDS011;9086;50.966;3.144;2023-03-31T07:38:13;16.13;;;5.17;;
17921;SDS011;9086;50.966;3.144;2023-03-31T07:40:39;19.20;;;5.23;;
17921;SDS011;9086;50.966;3.144;2023-03-31T07:43:06;14.27;;;5.17;;
17921;SDS011;9086;50.966;3.144;2023-03-31T07:45:32;16.33;;;5.40;;
17921;SDS011;9086;50.966;3.144;2023-03-31T07:47:58;20.43;;;5.30;;
17921;SDS011;9086;50.966;3.144;2023-03-31T07:50:25;20.77;;;6.17;;
17921;SDS011;9086;50.966;3.144;2023-03-31T07:52:51;18.33;;;4.73;;
17921;SDS011;9086;50.966;3.144;2023-03-31T07:55:17;18.63;;;5.03;;
17921;SDS011;9086;50.966;3.144;2023-03-31T07:57:44;18.27;;;5.47;;
17921;SDS011;9086;50.966;3.144;2023-03-31T08:00:11;12.57;;;3.97;;
17921;SDS011;9086;50.966;3.144;2023-03-31T08:02:38;10.67;;;3.70;;
17921;SDS011;9086;50.966;3.144;2023-03-31T08:05:06;11.87;;;3.80;;
17921;SDS011;9086;50.966;3.144;2023-03-31T08:07:36;13.33;;;3.93;;
17921;SDS011;9086;50.966;3.144;2023-03-31T08:10:03;14.83;;;3.77;;
17921;SDS011;9086;50.966;3.144;2023-03-31T08:12:30;16.63;;;5.33;;
17921;SDS011;9086;50.966;3.144;2023-03-31T08:14:56;12.07;;;3.40;;
17921;SDS011;9086;50.966;3.144;2023-03-31T08:17:22;12.90;;;2.90;;
17921;SDS011;9086;50.966;3.144;2023-03-31T08:19:48;14.00;;;3.37;;
17921;SDS011;9086;50.966;3.144;2023-03-31T08:22:15;15.17;;;3.57;;
17921;SDS011;9086;50.966;3.144;2023-03-31T08:24:41;11.30;;;2.90;;
17921;SDS011;9086;50.966;3.144;2023-03-31T08:27:07;11.83;;;2.57;;
17921;SDS011;9086;50.966;3.144;2023-03-31T08:29:33;8.57;;;3.50;;
17921;SDS011;9086;50.966;3.144;2023-03-31T08:32:00;16.60;;;3.60;;
17921;SDS011;9086;50.966;3.144;2023-03-31T08:34:26;10.87;;;2.73;;
17921;SDS011;9086;50.966;3.144;2023-03-31T08:36:52;11.50;;;2.70;;
17921;SDS011;9086;50.966;3.144;2023-03-31T08:39:19;14.87;;;4.17;;
17921;SDS011;9086;50.966;3.144;2023-03-31T08:42:01;14.33;;;2.93;;
17921;SDS011;9086;50.966;3.144;2023-03-31T08:44:30;15.63;;;3.60;;
17921;SDS011;9086;50.966;3.144;2023-03-31T08:46:57;11.90;;;2.90;;
17921;SDS011;9086;50.966;3.144;2023-03-31T08:49:24;11.87;;;3.30;;
17921;SDS011;9086;50.966;3.144;2023-03-31T08:51:53;12.37;;;3.33;;
17921;SDS011;9086;50.966;3.144;2023-03-31T08:56:47;8.73;;;2.93;;
17921;SDS011;9086;50.966;3.144;2023-03-31T08:59:30;11.53;;;3.30;;
17921;SDS011;9086;50.966;3.144;2023-03-31T09:02:07;10.87;;;3.47;;
17921;SDS011;9086;50.966;3.144;2023-03-31T09:04:42;9.70;;;3.30;;
17921;SDS011;9086;50.966;3.144;2023-03-31T09:12:46;10.53;;;4.40;;
17921;SDS011;9086;50.966;3.144;2023-03-31T09:17:46;9.73;;;3.90;;
17921;SDS011;9086;50.966;3.144;2023-03-31T09:20:16;9.97;;;5.13;;
17921;SDS011;9086;50.966;3.144;2023-03-31T09:22:48;14.80;;;5.97;;
17921;SDS011;9086;50.966;3.144;2023-03-31T09:27:41;15.13;;;6.53;;
17921;SDS011;9086;50.966;3.144;2023-03-31T09:32:34;16.37;;;6.57;;
17921;SDS011;9086;50.966;3.144;2023-03-31T09:35:18;14.63;;;7.33;;
17921;SDS011;9086;50.966;3.144;2023-03-31T09:37:49;14.63;;;6.23;;
17921;SDS011;9086;50.966;3.144;2023-03-31T09:40:17;11.13;;;5.57;;
17921;SDS011;9086;50.966;3.144;2023-03-31T09:42:44;10.80;;;3.53;;
17921;SDS011;9086;50.966;3.144;2023-03-31T09:45:14;6.70;;;3.00;;
17921;SDS011;9086;50.966;3.144;2023-03-31T09:47:41;8.93;;;3.50;;
17921;SDS011;9086;50.966;3.144;2023-03-31T09:50:08;8.20;;;2.87;;
17921;SDS011;9086;50.966;3.144;2023-03-31T09:52:49;5.57;;;2.50;;
17921;SDS011;9086;50.966;3.144;2023-03-31T09:55:20;5.57;;;2.53;;
17921;SDS011;9086;50.966;3.144;2023-03-31T09:57:46;5.83;;;2.47;;
17921;SDS011;9086;50.966;3.144;2023-03-31T10:00:17;8.63;;;3.17;;
17921;SDS011;9086;50.966;3.144;2023-03-31T10:07:48;9.43;;;3.37;;
17921;SDS011;9086;50.966;3.144;2023-03-31T10:13:07;11.83;;;4.90;;
17921;SDS011;9086;50.966;3.144;2023-03-31T10:15:36;15.63;;;5.70;;
17921;SDS011;9086;50.966;3.144;2023-03-31T10:18:02;13.90;;;6.20;;
17921;SDS011;9086;50.966;3.144;2023-03-31T10:20:35;12.77;;;5.67;;
17921;SDS011;9086;50.966;3.144;2023-03-31T10:23:05;16.20;;;5.73;;
17921;SDS011;9086;50.966;3.144;2023-03-31T10:25:40;14.07;;;6.37;;
17921;SDS011;9086;50.966;3.144;2023-03-31T10:28:09;13.83;;;5.60;;
17921;SDS011;9086;50.966;3.144;2023-03-31T10:30:36;13.60;;;6.13;;
17921;SDS011;9086;50.966;3.144;2023-03-31T10:33:05;10.50;;;5.07;;
17921;SDS011;9086;50.966;3.144;2023-03-31T10:35:32;7.80;;;4.50;;
17921;SDS011;9086;50.966;3.144;2023-03-31T10:38:00;6.97;;;3.43;;
17921;SDS011;9086;50.966;3.144;2023-03-31T10:40:27;10.83;;;4.07;;
17921;SDS011;9086;50.966;3.144;2023-03-31T10:45:48;11.50;;;4.90;;
17921;SDS011;9086;50.966;3.144;2023-03-31T10:48:28;9.30;;;3.73;;
17921;SDS011;9086;50.966;3.144;2023-03-31T10:53:38;6.93;;;2.90;;
17921;SDS011;9086;50.966;3.144;2023-03-31T10:56:11;5.07;;;2.60;;
17921;SDS011;9086;50.966;3.144;2023-03-31T10:58:50;6.73;;;2.40;;
17921;SDS011;9086;50.966;3.144;2023-03-31T11:01:33;8.83;;;2.60;;
17921;SDS011;9086;50.966;3.144;2023-03-31T11:06:32;6.03;;;2.90;;
17921;SDS011;9086;50.966;3.144;2023-03-31T11:19:21;7.50;;;3.07;;
17921;SDS011;9086;50.966;3.144;2023-03-31T11:22:08;8.73;;;3.33;;
17921;SDS011;9086;50.966;3.144;2023-03-31T11:29:50;5.23;;;2.93;;
17921;SDS011;9086;50.966;3.144;2023-03-31T11:32:30;8.63;;;2.73;;
17921;SDS011;9086;50.966;3.144;2023-03-31T11:35:34;7.43;;;2.70;;
17921;SDS011;9086;50.966;3.144;2023-03-31T11:43:22;8.10;;;3.17;;
17921;SDS011;9086;50.966;3.144;2023-03-31T11:45:51;7.67;;;3.03;;
17921;SDS011;9086;50.966;3.144;2023-03-31T11:50:56;4.60;;;2.43;;
17921;SDS011;9086;50.966;3.144;2023-03-31T11:53:29;4.53;;;2.27;;
17921;SDS011;9086;50.966;3.144;2023-03-31T11:55:56;5.83;;;2.70;;
17921;SDS011;9086;50.966;3.144;2023-03-31T12:02:13;5.90;;;2.70;;
17921;SDS011;9086;50.966;3.144;2023-03-31T12:04:05;4.80;;;2.07;;
17921;SDS011;9086;50.966;3.144;2023-03-31T12:06:36;6.20;;;2.17;;
17921;SDS011;9086;50.966;3.144;2023-03-31T12:16:41;2.60;;;1.80;;
17921;SDS011;9086;50.966;3.144;2023-03-31T12:19:16;4.63;;;1.70;;
17921;SDS011;9086;50.966;3.144;2023-03-31T12:21:48;8.33;;;2.10;;
17921;SDS011;9086;50.966;3.144;2023-03-31T12:24:15;9.67;;;1.97;;
17921;SDS011;9086;50.966;3.144;2023-03-31T12:26:49;6.50;;;2.23;;
17921;SDS011;9086;50.966;3.144;2023-03-31T12:29:22;10.20;;;2.90;;
17921;SDS011;9086;50.966;3.144;2023-03-31T12:31:51;7.77;;;2.30;;
17921;SDS011;9086;50.966;3.144;2023-03-31T12:34:18;5.93;;;1.50;;
17921;SDS011;9086;50.966;3.144;2023-03-31T12:41:59;4.23;;;1.60;;
17921;SDS011;9086;50.966;3.144;2023-03-31T12:58:05;8.67;;;2.30;;
17921;SDS011;9086;50.966;3.144;2023-03-31T13:00:48;6.23;;;2.20;;
17921;SDS011;9086;50.966;3.144;2023-03-31T13:06:00;7.67;;;2.30;;
17921;SDS011;9086;50.966;3.144;2023-03-31T13:11:11;8.80;;;2.03;;
17921;SDS011;9086;50.966;3.144;2023-03-31T13:13:40;5.90;;;2.40;;
17921;SDS011;9086;50.966;3.144;2023-03-31T13:16:09;9.97;;;1.70;;
17921;SDS011;9086;50.966;3.144;2023-03-31T13:18:35;7.60;;;2.50;;
17921;SDS011;9086;50.966;3.144;2023-03-31T13:21:01;6.93;;;1.87;;
17921;SDS011;9086;50.966;3.144;2023-03-31T13:23:30;7.00;;;1.93;;
17921;SDS011;9086;50.966;3.144;2023-03-31T13:25:57;8.93;;;1.97;;
17921;SDS011;9086;50.966;3.144;2023-03-31T13:28:25;7.00;;;1.80;;
17921;SDS011;9086;50.966;3.144;2023-03-31T13:30:55;7.77;;;2.00;;
17921;SDS011;9086;50.966;3.144;2023-03-31T13:52:10;9.20;;;3.20;;
17921;SDS011;9086;50.966;3.144;2023-03-31T13:54:52;10.60;;;2.60;;
17921;SDS011;9086;50.966;3.144;2023-03-31T14:00:09;6.10;;;2.37;;
17921;SDS011;9086;50.966;3.144;2023-03-31T14:05:24;4.20;;;1.90;;
17921;SDS011;9086;50.966;3.144;2023-03-31T14:08:04;6.27;;;1.87;;
17921;SDS011;9086;50.966;3.144;2023-03-31T14:10:36;3.33;;;1.70;;
17921;SDS011;9086;50.966;3.144;2023-03-31T14:13:03;7.23;;;1.80;;
17921;SDS011;9086;50.966;3.144;2023-03-31T14:15:30;3.80;;;1.37;;
17921;SDS011;9086;50.966;3.144;2023-03-31T14:17:56;4.17;;;1.53;;
17921;SDS011;9086;50.966;3.144;2023-03-31T14:25:45;9.90;;;2.53;;
17921;SDS011;9086;50.966;3.144;2023-03-31T14:35:57;8.67;;;2.90;;
17921;SDS011;9086;50.966;3.144;2023-03-31T14:38:27;10.33;;;3.07;;
17921;SDS011;9086;50.966;3.144;2023-03-31T14:40:53;10.17;;;2.70;;
17921;SDS011;9086;50.966;3.144;2023-03-31T14:43:22;10.43;;;3.63;;
17921;SDS011;9086;50.966;3.144;2023-03-31T14:45:59;11.20;;;2.97;;
17921;SDS011;9086;50.966;3.144;2023-03-31T14:48:27;14.30;;;3.23;;
17921;SDS011;9086;50.966;3.144;2023-03-31T14:50:55;13.10;;;3.23;;
17921;SDS011;9086;50.966;3.144;2023-03-31T14:53:23;13.00;;;3.57;;
17921;SDS011;9086;50.966;3.144;2023-03-31T14:55:50;10.80;;;3.33;;
17921;SDS011;9086;50.966;3.144;2023-03-31T14:58:25;12.77;;;3.33;;
17921;SDS011;9086;50.966;3.144;2023-03-31T15:00:52;9.07;;;3.17;;
17921;SDS011;9086;50.966;3.144;2023-03-31T15:03:18;8.27;;;3.20;;
17921;SDS011;9086;50.966;3.144;2023-03-31T15:05:45;10.13;;;3.00;;
17921;SDS011;9086;50.966;3.144;2023-03-31T15:08:18;11.10;;;2.47;;
17921;SDS011;9086;50.966;3.144;2023-03-31T15:10:49;12.50;;;4.13;;
17921;SDS011;9086;50.966;3.144;2023-03-31T15:13:23;10.87;;;3.80;;
17921;SDS011;9086;50.966;3.144;2023-03-31T15:15:52;11.47;;;3.17;;
17921;SDS011;9086;50.966;3.144;2023-03-31T15:18:18;14.60;;;4.10;;
17921;SDS011;9086;50.966;3.144;2023-03-31T15:20:44;11.20;;;3.83;;
17921;SDS011;9086;50.966;3.144;2023-03-31T15:23:18;11.63;;;3.60;;
17921;SDS011;9086;50.966;3.144;2023-03-31T15:26:01;15.27;;;4.40;;
17921;SDS011;9086;50.966;3.144;2023-03-31T15:28:30;13.33;;;2.93;;
17921;SDS011;9086;50.966;3.144;2023-03-31T15:31:00;12.27;;;3.20;;
17921;SDS011;9086;50.966;3.144;2023-03-31T15:33:33;18.83;;;4.37;;
17921;SDS011;9086;50.966;3.144;2023-03-31T15:36:05;13.40;;;3.97;;
17921;SDS011;9086;50.966;3.144;2023-03-31T15:38:32;11.97;;;4.47;;
17921;SDS011;9086;50.966;3.144;2023-03-31T15:40:58;14.67;;;3.27;;
17921;SDS011;9086;50.966;3.144;2023-03-31T15:43:31;17.77;;;3.77;;
17921;SDS011;9086;50.966;3.144;2023-03-31T15:45:58;19.67;;;4.70;;
17921;SDS011;9086;50.966;3.144;2023-03-31T15:48:28;19.97;;;4.67;;
17921;SDS011;9086;50.966;3.144;2023-03-31T15:50:58;21.90;;;4.73;;
17921;SDS011;9086;50.966;3.144;2023-03-31T15:55:55;15.70;;;3.73;;
17921;SDS011;9086;50.966;3.144;2023-03-31T15:58:24;16.33;;;4.30;;
17921;SDS011;9086;50.966;3.144;2023-03-31T16:01:10;14.57;;;5.00;;
17921;SDS011;9086;50.966;3.144;2023-03-31T16:03:40;17.50;;;4.03;;
17921;SDS011;9086;50.966;3.144;2023-03-31T16:09:01;18.73;;;5.33;;
17921;SDS011;9086;50.966;3.144;2023-03-31T16:11:49;18.67;;;6.10;;
17921;SDS011;9086;50.966;3.144;2023-03-31T16:16:46;18.47;;;4.80;;
17921;SDS011;9086;50.966;3.144;2023-03-31T16:19:12;16.13;;;4.10;;
17921;SDS011;9086;50.966;3.144;2023-03-31T16:21:39;22.23;;;5.60;;
17921;SDS011;9086;50.966;3.144;2023-03-31T16:24:06;14.63;;;3.90;;
17921;SDS011;9086;50.966;3.144;2023-03-31T16:26:32;16.83;;;3.70;;
17921;SDS011;9086;50.966;3.144;2023-03-31T16:29:00;15.63;;;4.07;;
17921;SDS011;9086;50.966;3.144;2023-03-31T16:31:32;20.13;;;4.60;;
17921;SDS011;9086;50.966;3.144;2023-03-31T16:33:58;18.30;;;4.20;;
17921;SDS011;9086;50.966;3.144;2023-03-31T16:36:24;19.23;;;4.00;;
17921;SDS011;9086;50.966;3.144;2023-03-31T16:38:51;17.07;;;4.97;;
17921;SDS011;9086;50.966;3.144;2023-03-31T16:41:22;17.50;;;4.53;;
17921;SDS011;9086;50.966;3.144;2023-03-31T16:43:48;15.07;;;4.20;;
17921;SDS011;9086;50.966;3.144;2023-03-31T16:46:16;18.53;;;4.60;;
17921;SDS011;9086;50.966;3.144;2023-03-31T16:48:42;17.10;;;5.07;;
17921;SDS011;9086;50.966;3.144;2023-03-31T16:51:08;16.60;;;4.23;;
17921;SDS011;9086;50.966;3.144;2023-03-31T16:53:35;13.77;;;3.83;;
17921;SDS011;9086;50.966;3.144;2023-03-31T16:56:01;17.53;;;4.50;;
17921;SDS011;9086;50.966;3.144;2023-03-31T16:58:27;16.80;;;4.30;;
17921;SDS011;9086;50.966;3.144;2023-03-31T17:00:54;13.17;;;5.30;;
17921;SDS011;9086;50.966;3.144;2023-03-31T17:03:20;14.87;;;3.67;;
17921;SDS011;9086;50.966;3.144;2023-03-31T17:05:47;14.20;;;4.23;;
17921;SDS011;9086;50.966;3.144;2023-03-31T17:08:14;17.70;;;4.50;;
17921;SDS011;9086;50.966;3.144;2023-03-31T17:10:52;19.20;;;4.60;;
17921;SDS011;9086;50.966;3.144;2023-03-31T17:13:18;16.67;;;4.83;;
17921;SDS011;9086;50.966;3.144;2023-03-31T17:15:44;16.73;;;4.70;;
17921;SDS011;9086;50.966;3.144;2023-03-31T17:18:11;16.43;;;4.67;;
17921;SDS011;9086;50.966;3.144;2023-03-31T17:20:38;15.93;;;3.73;;
17921;SDS011;9086;50.966;3.144;2023-03-31T17:23:04;15.07;;;4.90;;
17921;SDS011;9086;50.966;3.144;2023-03-31T17:25:30;18.60;;;4.93;;
17921;SDS011;9086;50.966;3.144;2023-03-31T17:27:58;18.73;;;4.13;;
17921;SDS011;9086;50.966;3.144;2023-03-31T17:30:25;20.73;;;6.03;;
17921;SDS011;9086;50.966;3.144;2023-03-31T17:32:51;18.20;;;3.93;;
17921;SDS011;9086;50.966;3.144;2023-03-31T17:35:17;20.60;;;5.03;;
17921;SDS011;9086;50.966;3.144;2023-03-31T17:37:49;16.07;;;4.83;;
17921;SDS011;9086;50.966;3.144;2023-03-31T17:40:18;21.57;;;5.23;;
17921;SDS011;9086;50.966;3.144;2023-03-31T17:42:44;13.50;;;4.10;;
17921;SDS011;9086;50.966;3.144;2023-03-31T17:45:13;17.33;;;4.33;;